• Join FlightAware (Why Join?)
  • Login
  • US Flag GB Flag 
21:53 EDT


 

Airport Tracker/Info


-or-


 

Live Flight TrackerFlight Track Log ✈ EJM918 ✈ 09-Oct-2013 ✈ KHPN - KBDL

Flight Track Log - Related Links

Times and Time Zones

All times are in EDT time to prevent confusion due to time zone crossing. See the EJM918 flight status page for this flight to view local times or setup timezone preferences in your user account.

Time Position Orientation Groundspeed Altitude Reporting Facility
EDT Latitude Longitude Course Direction KTS MPH feet Rate Location/Type
15:55 41.1001 -73.8027 282° West 275 316 4,000  Level FlightAware ADS-B
15:56 41.1134 -73.8819 283° West 285 328 7,800 4,800 Climbing FlightAware ADS-B
15:56 41.1154 -73.8893 290° West 298 343 8,000 2,640 Climbing FlightAware ADS-B
15:56 41.1185 -73.8970 298° West 298 343 8,200 1,800 Climbing FlightAware ADS-B
15:56 41.1327 -73.9162 314° West 298 343 8,600 1,260 Climbing FlightAware ADS-B
15:56 41.1377 -73.9199 331° Northwest 297 342 8,600  Level FlightAware ADS-B
15:56 41.1463 -73.9240 340° North 294 338 8,600  Level FlightAware ADS-B
15:57 41.1634 -73.9247 358° North 292 336 8,600  Level FlightAware ADS-B
15:57 41.1681 -73.9232 14° North 290 334 8,600  Level FlightAware ADS-B
15:57 41.1718 -73.9214 20° North 287 330 8,600  Level FlightAware ADS-B
15:57 41.1755 -73.9191 25° Northeast 285 328 8,600  Level FlightAware ADS-B
15:57 41.1809 -73.9144 33° Northeast 281 323 8,600  Level FlightAware ADS-B
15:57 41.1839 -73.9111 40° Northeast 280 322 8,600  Level FlightAware ADS-B
15:57 41.1947 -73.8898 56° Northeast 275 316 8,600  Level FlightAware ADS-B
15:57 41.2034 -73.8662 64° Northeast 274 315 8,600  Level FlightAware ADS-B
15:59 41.2421 -73.7377 68° East 273 314 8,600  Level FlightAware ADS-B
15:59 41.2483 -73.7120 72° East 274 315 8,600  Level FlightAware ADS-B
16:01 41.3066 -73.5461 65° Northeast 279 321 8,600  Level FlightAware ADS-B (KSNC)
16:01 41.3286 -73.5168 45° Northeast 279 321 8,600  Level FlightAware ADS-B (KSNC)
16:02 41.3603 -73.4743 45° Northeast 277 319 8,600  Level FlightAware ADS-B (KSNC)
16:02 41.3809 -73.4468 45° Northeast 278 320 8,600  Level FlightAware ADS-B (KSNC)
16:03 41.4025 -73.4181 45° Northeast 280 322 8,600  Level FlightAware ADS-B (KSNC)
16:03 41.4242 -73.3891 45° Northeast 278 320 8,600  Level FlightAware ADS-B (KSNC)
16:04 41.4591 -73.3421 45° Northeast 277 319 8,600  Level FlightAware ADS-B (KSNC)
16:04 41.4806 -73.3132 45° Northeast 279 321 8,600  Level FlightAware ADS-B (KSNC)
16:05 41.5060 -73.2783 46° Northeast 274 315 8,600  Level FlightAware ADS-B (KSNC)
16:05 41.5333 -73.2404 46° Northeast 273 314 8,600  Level FlightAware ADS-B (KSNC)
16:06 41.5567 -73.2083 46° Northeast 272 313 8,600  Level FlightAware ADS-B (KSNC)
16:06 41.5748 -73.1832 46° Northeast 272 313 8,600 -840 Level FlightAware ADS-B (KSNC)
16:06 41.5878 -73.1650 46° Northeast 270 311 7,900 -1,320 Descending FlightAware ADS-B (KSNC)
16:07 41.6172 -73.1240 46° Northeast 274 315 7,400 -1,500 Descending FlightAware ADS-B (KSNC)
16:07 41.6382 -73.0950 46° Northeast 267 307 6,900 -1,440 Descending FlightAware ADS-B (KSNC)
16:08 41.6785 -73.0391 46° Northeast 262 302 5,900 -1,320 Descending FlightAware ADS-B (KSNC)
16:08 41.6900 -73.0231 46° Northeast 262 302 5,400 -1,380 Descending FlightAware ADS-B (KSNC)
16:09 41.7220 -72.9781 46° Northeast 256 295 4,700 -1,380 Descending FlightAware ADS-B (KSNC)
16:09 41.7376 -72.9565 46° Northeast 253 291 4,300 -1,200 Descending FlightAware ADS-B (KSNC)
16:10 41.7582 -72.9278 46° Northeast 245 282 3,800 -1,320 Descending FlightAware ADS-B (KSNC)
16:10 41.7743 -72.9051 46° Northeast 239 275 3,300 -780 Descending FlightAware ADS-B (KSNC)
16:11 41.8267 -72.8356 46° Northeast 196 226 2,500 -600 Descending Boston Center
16:12 41.8581 -72.7969 42° Northeast 166 191 2,000 -600 Descending Boston Center
16:13 41.8872 -72.7608 43° Northeast 145 167 1,500 -660 Descending Boston Center
16:14 41.9103 -72.7303 45° Northeast 118 136 800 -720 Descending Boston Center